Time;durP1;ratioP1;P1;durP2;ratioP2;P2;SDS_P1;SDS_P2;PMS_P1;PMS_P2;Temp;Humidity;BMP_temperature;BMP_pressure;BME280_temperature;BME280_humidity;BME280_pressure;Samples;Min_cycle;Max_cycle;Signal;HPM_P1;HPM_P2
2022/02/09 00:01:27;;;;;;;58.83;3.10;;;;;;;;;;5091434;28;20532;-71
2022/02/09 00:04:04;;;;;;;60.07;3.73;;;;;;;;;;5094195;28;20479;-72
2022/02/09 00:06:46;;;;;;;59.00;3.30;;;;;;;;;;5095160;28;21000;-72
2022/02/09 00:09:15;;;;;;;58.90;3.80;;;;;;;;;;5094551;28;20451;-71
2022/02/09 00:11:51;;;;;;;59.60;3.70;;;;;;;;;;5095172;28;20460;-71
2022/02/09 00:14:27;;;;;;;59.50;3.77;;;;;;;;;;5094748;28;20877;-71
2022/02/09 00:17:15;;;;;;;58.57;3.40;;;;;;;;;;5094762;28;20550;-72
2022/02/09 00:20:01;;;;;;;58.77;3.60;;;;;;;;;;5094714;28;20450;-71
2022/02/09 00:22:47;;;;;;;58.67;3.50;;;;;;;;;;5094640;28;20525;-71
2022/02/09 00:26:19;;;;;;;60.23;3.53;;;;;;;;;;5094541;28;20445;-71
2022/02/09 00:28:46;;;;;;;59.60;3.20;;;;;;;;;;5094222;28;20445;-71
2022/02/09 00:34:32;;;;;;;62.40;3.63;;;;;;;;;;5094366;28;21080;-71
2022/02/09 00:40:17;;;;;;;59.23;3.80;;;;;;;;;;5094640;28;20527;-71
2022/02/09 00:43:09;;;;;;;60.53;3.70;;;;;;;;;;5094578;28;20935;-71
2022/02/09 01:11:16;;;;;;;60.10;4.07;;;;;;;;;;5069540;28;20794;-71
2022/02/09 01:12:00;;;;;;;63.07;3.60;;;;;;;;;;5073799;28;20562;-71
2022/02/09 01:39:57;;;;;;;59.07;3.07;;;;;;;;;;5093832;28;20509;-71
2022/02/09 01:55:23;;;;;;;59.10;3.97;;;;;;;;;;5093382;28;20784;-71
2022/02/09 01:56:53;;;;;;;61.27;4.07;;;;;;;;;;5093100;28;20481;-71
2022/02/09 01:59:23;;;;;;;58.77;3.70;;;;;;;;;;5092526;28;20458;-71
2022/02/09 02:01:55;;;;;;;63.50;4.47;;;;;;;;;;5092923;28;20458;-71
2022/02/09 02:04:32;;;;;;;59.10;3.97;;;;;;;;;;5091506;28;20477;-71
2022/02/09 02:07:04;;;;;;;60.83;4.10;;;;;;;;;;5091830;28;20442;-71
2022/02/09 02:09:37;;;;;;;62.10;3.93;;;;;;;;;;5092897;28;20988;-71
2022/02/09 02:12:12;;;;;;;59.97;4.90;;;;;;;;;;5092771;28;20447;-71
2022/02/09 02:14:48;;;;;;;62.27;4.63;;;;;;;;;;5092861;28;20463;-72
2022/02/09 02:17:23;;;;;;;61.83;5.07;;;;;;;;;;5092226;28;20486;-71
2022/02/09 02:20:13;;;;;;;60.93;4.50;;;;;;;;;;5091975;28;21006;-72
2022/02/09 02:23:04;;;;;;;62.83;5.23;;;;;;;;;;5092978;28;20447;-72
2022/02/09 02:25:56;;;;;;;62.80;4.93;;;;;;;;;;5094069;28;20477;-71
2022/02/09 02:31:42;;;;;;;64.10;5.77;;;;;;;;;;5116090;28;20433;-71
2022/02/09 02:37:32;;;;;;;61.40;4.80;;;;;;;;;;5068368;28;20543;-71
2022/02/09 02:57:10;;;;;;;59.87;4.50;;;;;;;;;;5092497;28;20458;-71
2022/02/09 03:07:43;;;;;;;60.90;5.20;;;;;;;;;;5091804;28;20533;-71
2022/02/09 03:08:34;;;;;;;61.70;4.93;;;;;;;;;;5091752;28;20552;-70
2022/02/09 03:14:12;;;;;;;61.20;5.20;;;;;;;;;;5009648;28;20553;-72
2022/02/09 03:16:56;;;;;;;61.00;5.10;;;;;;;;;;5078752;28;20855;-71
2022/02/09 03:22:42;;;;;;;64.03;5.63;;;;;;;;;;5151361;27;20544;-70
2022/02/09 03:31:14;;;;;;;63.63;5.10;;;;;;;;;;5109626;28;20495;-70
2022/02/09 03:42:44;;;;;;;61.10;5.47;;;;;;;;;;5109703;28;20986;-71
2022/02/09 03:48:21;;;;;;;61.87;5.60;;;;;;;;;;5108841;28;20423;-70
2022/02/09 03:51:19;;;;;;;64.60;6.40;;;;;;;;;;5109191;28;20448;-70
2022/02/09 03:54:06;;;;;;;64.70;6.20;;;;;;;;;;5108903;28;20456;-71
2022/02/09 03:56:59;;;;;;;64.13;6.00;;;;;;;;;;5109018;28;20455;-70
2022/02/09 03:59:30;;;;;;;62.30;6.07;;;;;;;;;;5108868;28;20523;-70
2022/02/09 04:02:07;;;;;;;64.20;5.87;;;;;;;;;;5108918;28;20553;-70
2022/02/09 04:04:36;;;;;;;63.70;6.40;;;;;;;;;;5109235;28;20470;-70
2022/02/09 04:07:08;;;;;;;63.53;6.40;;;;;;;;;;5107392;28;20451;-70
2022/02/09 04:09:40;;;;;;;61.10;5.40;;;;;;;;;;5108242;28;20444;-70
2022/02/09 04:12:27;;;;;;;63.90;6.00;;;;;;;;;;5108309;28;20839;-70
2022/02/09 04:15:03;;;;;;;64.80;6.27;;;;;;;;;;5108562;28;20484;-70
2022/02/09 04:17:47;;;;;;;63.23;6.50;;;;;;;;;;5108522;28;20820;-70
2022/02/09 04:22:19;;;;;;;62.97;6.00;;;;;;;;;;5108439;28;20537;-70
2022/02/09 04:37:16;;;;;;;61.47;5.80;;;;;;;;;;5094920;28;20854;-70
2022/02/09 04:39:53;;;;;;;65.27;6.00;;;;;;;;;;5094801;28;20457;-70
2022/02/09 04:48:23;;;;;;;61.50;6.00;;;;;;;;;;5093466;28;20521;-70
2022/02/09 04:50:59;;;;;;;69.00;7.23;;;;;;;;;;5094237;28;20855;-70
2022/02/09 04:56:24;;;;;;;62.00;5.73;;;;;;;;;;5094209;28;20979;-71
2022/02/09 04:59:09;;;;;;;65.80;5.80;;;;;;;;;;5094056;28;20521;-70
2022/02/09 05:02:05;;;;;;;60.27;5.03;;;;;;;;;;5094030;28;20577;-70
2022/02/09 05:04:56;;;;;;;63.10;5.20;;;;;;;;;;5094038;28;20470;-71
2022/02/09 05:21:48;;;;;;;62.23;5.67;;;;;;;;;;5089676;28;21051;-71
2022/02/09 05:24:36;;;;;;;63.50;5.57;;;;;;;;;;5093652;28;20469;-71
2022/02/09 05:27:19;;;;;;;60.47;5.33;;;;;;;;;;5093792;28;20463;-71
2022/02/09 05:29:48;;;;;;;60.67;5.20;;;;;;;;;;5093911;28;20447;-71
2022/02/09 05:32:21;;;;;;;64.43;5.97;;;;;;;;;;5093653;28;20445;-71
2022/02/09 05:34:57;;;;;;;61.23;4.93;;;;;;;;;;5093498;28;20473;-71
2022/02/09 05:37:26;;;;;;;64.40;5.57;;;;;;;;;;5093327;28;20509;-72
2022/02/09 05:40:00;;;;;;;60.47;5.23;;;;;;;;;;5093450;28;20448;-71
2022/02/09 05:42:31;;;;;;;63.37;5.70;;;;;;;;;;5093251;28;20550;-71
2022/02/09 05:45:10;;;;;;;62.53;5.10;;;;;;;;;;5092561;28;20503;-71
2022/02/09 05:50:37;;;;;;;60.90;5.37;;;;;;;;;;5093443;28;20509;-71
2022/02/09 05:53:16;;;;;;;64.20;5.63;;;;;;;;;;5093183;28;20459;-72
2022/02/09 05:55:49;;;;;;;62.17;6.20;;;;;;;;;;5093366;28;20442;-72
2022/02/09 05:58:34;;;;;;;61.10;5.80;;;;;;;;;;5092957;28;20457;-71
2022/02/09 06:01:07;;;;;;;64.07;5.90;;;;;;;;;;5093111;28;21029;-71
2022/02/09 06:03:37;;;;;;;64.47;6.27;;;;;;;;;;5092816;28;20465;-71
2022/02/09 06:06:11;;;;;;;62.37;6.10;;;;;;;;;;5092986;28;20457;-71
2022/02/09 06:08:44;;;;;;;61.30;5.67;;;;;;;;;;5091313;28;20932;-71
2022/02/09 06:11:24;;;;;;;62.53;5.97;;;;;;;;;;5092534;28;20467;-71
2022/02/09 06:14:17;;;;;;;63.90;6.23;;;;;;;;;;5092343;28;20468;-71
2022/02/09 06:19:47;;;;;;;62.17;6.07;;;;;;;;;;5093318;28;20916;-72
2022/02/09 06:22:21;;;;;;;62.93;6.20;;;;;;;;;;5090113;28;21000;-71
2022/02/09 06:24:59;;;;;;;65.37;6.80;;;;;;;;;;5092578;28;20479;-71
2022/02/09 06:27:31;;;;;;;62.00;6.47;;;;;;;;;;5092290;28;20448;-71
2022/02/09 06:30:01;;;;;;;66.60;6.43;;;;;;;;;;5092502;28;20456;-71
2022/02/09 06:32:38;;;;;;;62.57;5.93;;;;;;;;;;5092355;28;20444;-72
2022/02/09 06:35:07;;;;;;;60.90;5.00;;;;;;;;;;5092411;28;20472;-72
2022/02/09 06:37:44;;;;;;;61.47;6.00;;;;;;;;;;5092086;28;20934;-72
2022/02/09 06:40:16;;;;;;;64.27;5.47;;;;;;;;;;5092438;28;20454;-72
2022/02/09 06:42:45;;;;;;;64.73;6.47;;;;;;;;;;5092184;28;20490;-72
2022/02/09 06:45:20;;;;;;;60.47;5.03;;;;;;;;;;5092355;28;20490;-71
2022/02/09 06:47:52;;;;;;;64.47;6.47;;;;;;;;;;5091979;28;20991;-72
2022/02/09 06:50:31;;;;;;;61.67;5.80;;;;;;;;;;5091906;28;20543;-72
2022/02/09 06:53:12;;;;;;;65.83;5.83;;;;;;;;;;5091790;28;20448;-72
2022/02/09 06:55:50;;;;;;;66.30;6.30;;;;;;;;;;5092292;28;20524;-72
2022/02/09 06:58:43;;;;;;;64.50;6.50;;;;;;;;;;5091514;28;20449;-71
2022/02/09 07:01:18;;;;;;;64.00;6.73;;;;;;;;;;5092088;28;20571;-72
2022/02/09 07:03:48;;;;;;;62.90;6.33;;;;;;;;;;5092345;28;20985;-72
2022/02/09 07:06:24;;;;;;;63.30;6.57;;;;;;;;;;5092235;28;20986;-72
2022/02/09 07:09:05;;;;;;;62.03;5.67;;;;;;;;;;5091714;28;20952;-71
2022/02/09 07:11:34;;;;;;;61.40;6.17;;;;;;;;;;5091306;28;20449;-72
2022/02/09 07:14:04;;;;;;;67.87;5.97;;;;;;;;;;5091657;28;20844;-72
2022/02/09 07:16:40;;;;;;;67.40;6.27;;;;;;;;;;5091130;28;20460;-72
2022/02/09 07:19:09;;;;;;;61.50;5.67;;;;;;;;;;5091810;28;20457;-72
2022/02/09 07:21:46;;;;;;;63.63;6.27;;;;;;;;;;5091944;28;20532;-72
2022/02/09 07:24:23;;;;;;;62.70;6.17;;;;;;;;;;5092730;28;20893;-72
2022/02/09 07:27:23;;;;;;;62.40;5.60;;;;;;;;;;5092003;28;20820;-72
2022/02/09 07:29:52;;;;;;;61.50;5.67;;;;;;;;;;5091673;28;20682;-72
2022/02/09 07:32:25;;;;;;;62.03;5.50;;;;;;;;;;5091694;28;20448;-73
2022/02/09 07:34:56;;;;;;;60.60;5.07;;;;;;;;;;5091512;28;20845;-73
2022/02/09 07:37:39;;;;;;;63.27;5.50;;;;;;;;;;5090890;28;20855;-72
2022/02/09 07:40:12;;;;;;;65.00;5.20;;;;;;;;;;5090700;28;20883;-72
2022/02/09 07:42:46;;;;;;;66.90;5.87;;;;;;;;;;5091215;28;20511;-72
2022/02/09 07:45:43;;;;;;;69.60;5.90;;;;;;;;;;5091614;28;20453;-72
2022/02/09 07:51:27;;;;;;;63.27;5.80;;;;;;;;;;5090676;28;20801;-72
2022/02/09 07:54:00;;;;;;;62.07;5.87;;;;;;;;;;5091351;28;20559;-71
2022/02/09 07:56:32;;;;;;;62.83;5.90;;;;;;;;;;5091442;28;20445;-72
2022/02/09 07:59:02;;;;;;;61.97;5.83;;;;;;;;;;5091163;28;20510;-72
2022/02/09 08:01:31;;;;;;;63.60;5.20;;;;;;;;;;5091499;28;20510;-72
2022/02/09 08:04:01;;;;;;;62.40;5.90;;;;;;;;;;5091112;28;20469;-71
2022/02/09 08:06:31;;;;;;;64.80;5.27;;;;;;;;;;5090941;28;20454;-71
2022/02/09 08:09:08;;;;;;;63.30;5.73;;;;;;;;;;5094659;28;20448;-72
2022/02/09 08:11:49;;;;;;;65.83;5.80;;;;;;;;;;5095092;28;20451;-72
2022/02/09 08:28:44;;;;;;;62.47;5.37;;;;;;;;;;5094904;28;20527;-72
2022/02/09 08:33:56;;;;;;;64.43;4.93;;;;;;;;;;5050033;28;20548;-72
2022/02/09 08:36:25;;;;;;;63.23;5.07;;;;;;;;;;5094946;28;20484;-72
2022/02/09 08:38:55;;;;;;;65.77;5.43;;;;;;;;;;5094432;28;20448;-73
2022/02/09 08:41:24;;;;;;;62.43;4.50;;;;;;;;;;5094616;28;20452;-73
2022/02/09 08:43:55;;;;;;;62.90;5.40;;;;;;;;;;5094412;28;20524;-72
2022/02/09 08:46:25;;;;;;;64.00;5.80;;;;;;;;;;5094648;28;20453;-72
2022/02/09 08:48:55;;;;;;;63.00;5.57;;;;;;;;;;5094269;28;20440;-73
2022/02/09 08:51:27;;;;;;;63.67;5.50;;;;;;;;;;5094595;28;20449;-71
2022/02/09 08:53:58;;;;;;;66.77;5.30;;;;;;;;;;5094131;28;20821;-71
2022/02/09 08:56:29;;;;;;;63.87;4.83;;;;;;;;;;5094461;28;20456;-70
2022/02/09 08:59:05;;;;;;;61.23;4.97;;;;;;;;;;5094158;28;20456;-73
2022/02/09 09:01:38;;;;;;;60.37;4.40;;;;;;;;;;5094088;28;20539;-70
2022/02/09 09:04:15;;;;;;;62.50;4.97;;;;;;;;;;5093724;28;21034;-70
2022/02/09 09:06:54;;;;;;;61.23;5.77;;;;;;;;;;5094234;28;20448;-71
2022/02/09 09:09:43;;;;;;;64.37;5.00;;;;;;;;;;5093889;28;20940;-71
2022/02/09 10:03:26;;;;;;;59.50;4.10;;;;;;;;;;5093013;28;20515;-73
2022/02/09 10:34:14;;;;;;;62.03;4.23;;;;;;;;;;5092445;28;20438;-72
2022/02/09 10:36:49;;;;;;;60.30;3.50;;;;;;;;;;5091830;28;20459;-72
2022/02/09 10:39:31;;;;;;;58.77;3.00;;;;;;;;;;5092268;28;21118;-73
2022/02/09 10:42:16;;;;;;;59.97;3.33;;;;;;;;;;5092522;28;20488;-72
2022/02/09 10:44:51;;;;;;;61.33;3.47;;;;;;;;;;5092262;28;20524;-72
2022/02/09 10:47:28;;;;;;;58.40;3.00;;;;;;;;;;5092009;28;20445;-73
2022/02/09 10:50:25;;;;;;;58.30;2.90;;;;;;;;;;5092366;28;20504;-72
2022/02/09 10:52:54;;;;;;;70.30;3.50;;;;;;;;;;5092203;28;20854;-73
2022/02/09 10:55:42;;;;;;;58.70;2.90;;;;;;;;;;5091584;28;20886;-73
2022/02/09 10:58:14;;;;;;;58.67;2.90;;;;;;;;;;5092143;28;20446;-73
2022/02/09 11:00:45;;;;;;;59.70;3.13;;;;;;;;;;5092688;28;20478;-73
2022/02/09 11:03:17;;;;;;;60.83;3.00;;;;;;;;;;5091864;28;20490;-73
2022/02/09 11:05:46;;;;;;;59.20;3.20;;;;;;;;;;5116368;28;20502;-72
2022/02/09 11:08:18;;;;;;;58.77;2.90;;;;;;;;;;5116180;28;20944;-72
2022/02/09 11:10:50;;;;;;;58.73;3.00;;;;;;;;;;5116475;28;20474;-72
2022/02/09 11:13:26;;;;;;;59.23;3.00;;;;;;;;;;5116214;28;20447;-71
2022/02/09 11:16:08;;;;;;;58.60;2.77;;;;;;;;;;5115352;28;20428;-72
2022/02/09 11:18:38;;;;;;;63.97;2.90;;;;;;;;;;5101199;28;20959;-73
2022/02/09 11:21:13;;;;;;;59.20;3.53;;;;;;;;;;5090720;28;20950;-72
2022/02/09 11:23:44;;;;;;;59.50;3.20;;;;;;;;;;5091782;28;20862;-72
2022/02/09 11:26:49;;;;;;;58.80;2.80;;;;;;;;;;5091728;28;20482;-72
2022/02/09 11:29:24;;;;;;;61.17;3.17;;;;;;;;;;5091681;28;20450;-72
2022/02/09 11:32:15;;;;;;;58.93;2.97;;;;;;;;;;5092158;28;20430;-73
2022/02/09 11:35:12;;;;;;;58.70;2.97;;;;;;;;;;5091664;28;20991;-73
2022/02/09 11:37:54;;;;;;;59.63;3.07;;;;;;;;;;5091491;28;20457;-74
2022/02/09 11:40:33;;;;;;;60.37;2.77;;;;;;;;;;5091523;28;20462;-74
2022/02/09 11:43:17;;;;;;;59.70;3.07;;;;;;;;;;5093617;28;20511;-74
2022/02/09 11:46:22;;;;;;;60.43;3.23;;;;;;;;;;5094747;28;20779;-73
2022/02/09 11:52:38;;;;;;;59.07;3.03;;;;;;;;;;5095811;28;20415;-74
2022/02/09 12:01:36;;;;;;;58.30;3.00;;;;;;;;;;5033236;28;20481;-74
2022/02/09 12:09:55;;;;;;;58.57;2.90;;;;;;;;;;5033035;28;20428;-74
2022/02/09 12:12:41;;;;;;;58.90;3.00;;;;;;;;;;5032475;28;20477;-73
2022/02/09 12:15:45;;;;;;;59.20;3.50;;;;;;;;;;5032585;28;20481;-74
2022/02/09 12:18:25;;;;;;;61.27;4.10;;;;;;;;;;5032414;28;20511;-73
2022/02/09 12:21:38;;;;;;;61.90;3.40;;;;;;;;;;5032508;28;21013;-73
2022/02/09 12:24:22;;;;;;;59.20;3.27;;;;;;;;;;5032472;28;20575;-73
2022/02/09 12:27:09;;;;;;;61.60;3.40;;;;;;;;;;5031523;28;20449;-73
2022/02/09 12:29:41;;;;;;;60.93;3.90;;;;;;;;;;5032398;28;20453;-73
2022/02/09 12:32:32;;;;;;;60.47;3.47;;;;;;;;;;5032362;28;20447;-73
2022/02/09 12:35:09;;;;;;;58.60;3.20;;;;;;;;;;5056621;28;20498;-73
2022/02/09 12:37:41;;;;;;;64.00;3.60;;;;;;;;;;5094460;28;20452;-73
2022/02/09 12:40:19;;;;;;;61.27;3.80;;;;;;;;;;5093647;28;20483;-73
2022/02/09 12:42:52;;;;;;;59.10;3.20;;;;;;;;;;5094640;28;20525;-73
2022/02/09 12:45:25;;;;;;;62.60;3.60;;;;;;;;;;5094507;28;20443;-73
2022/02/09 12:48:00;;;;;;;59.50;3.40;;;;;;;;;;5094171;28;20451;-73
2022/02/09 12:50:33;;;;;;;62.63;3.70;;;;;;;;;;5094493;28;20526;-73
2022/02/09 12:53:04;;;;;;;59.07;3.00;;;;;;;;;;5093753;28;20479;-73
2022/02/09 12:55:36;;;;;;;59.60;3.63;;;;;;;;;;5094415;28;20504;-74
2022/02/09 12:58:07;;;;;;;59.43;3.63;;;;;;;;;;5094144;28;20432;-73
2022/02/09 13:00:41;;;;;;;59.13;2.80;;;;;;;;;;5094259;28;20464;-73
2022/02/09 13:03:13;;;;;;;59.30;3.50;;;;;;;;;;5094122;28;20451;-74
2022/02/09 13:05:49;;;;;;;59.73;3.20;;;;;;;;;;5094180;28;20450;-73
2022/02/09 13:08:26;;;;;;;59.20;3.33;;;;;;;;;;5093731;28;20450;-73
2022/02/09 13:11:11;;;;;;;58.43;2.80;;;;;;;;;;5094164;28;20453;-74
2022/02/09 13:13:42;;;;;;;59.63;3.50;;;;;;;;;;5094063;28;20491;-73
2022/02/09 13:16:23;;;;;;;59.43;2.90;;;;;;;;;;5093270;28;20447;-72
2022/02/09 13:19:24;;;;;;;58.70;3.60;;;;;;;;;;5093753;28;20525;-73
2022/02/09 14:10:21;;;;;;;58.30;2.73;;;;;;;;;;5092970;28;20460;-75
2022/02/09 14:14:04;;;;;;;58.37;2.57;;;;;;;;;;5035159;28;21033;-72
2022/02/09 14:16:52;;;;;;;57.80;2.20;;;;;;;;;;5092408;28;20449;-72
2022/02/09 14:23:36;;;;;;;59.07;3.00;;;;;;;;;;5092551;28;20961;-72
2022/02/09 14:53:15;;;;;;;59.73;3.00;;;;;;;;;;5092319;28;20491;-72
2022/02/09 14:55:59;;;;;;;58.17;2.70;;;;;;;;;;5092191;28;20506;-72
2022/02/09 14:58:31;;;;;;;59.50;2.50;;;;;;;;;;5091892;28;20867;-71
2022/02/09 15:01:06;;;;;;;58.13;2.70;;;;;;;;;;5091739;28;20459;-72
2022/02/09 15:06:47;;;;;;;60.27;2.60;;;;;;;;;;5050724;28;20436;-71
2022/02/09 15:09:22;;;;;;;58.80;2.90;;;;;;;;;;5091447;28;20816;-71
2022/02/09 15:11:58;;;;;;;57.70;2.60;;;;;;;;;;5092094;28;20565;-72
2022/02/09 15:14:45;;;;;;;58.40;2.70;;;;;;;;;;5091204;28;20858;-71
2022/02/09 15:17:35;;;;;;;58.20;2.50;;;;;;;;;;5091083;28;20455;-71
2022/02/09 15:22:55;;;;;;;60.40;2.80;;;;;;;;;;5090421;28;20485;-71
2022/02/09 15:25:32;;;;;;;58.70;2.60;;;;;;;;;;5091674;28;20453;-70
2022/02/09 15:28:04;;;;;;;63.70;3.50;;;;;;;;;;5091976;28;20454;-72
2022/02/09 15:30:42;;;;;;;59.60;3.37;;;;;;;;;;5091197;28;20454;-73
2022/02/09 15:33:33;;;;;;;60.10;3.00;;;;;;;;;;5091604;28;20485;-74
2022/02/09 15:36:07;;;;;;;58.80;3.30;;;;;;;;;;5091805;28;20450;-74
2022/02/09 15:38:45;;;;;;;58.97;3.03;;;;;;;;;;5091344;28;20451;-73
2022/02/09 15:41:24;;;;;;;58.70;3.37;;;;;;;;;;5091718;28;20988;-73
2022/02/09 15:56:11;;;;;;;59.37;3.40;;;;;;;;;;5091648;28;20520;-73
2022/02/09 15:58:33;;;;;;;59.40;3.40;;;;;;;;;;5091444;28;20918;-73
2022/02/09 16:07:15;;;;;;;62.27;4.50;;;;;;;;;;5091271;28;20788;-72
2022/02/09 16:09:45;;;;;;;63.00;4.00;;;;;;;;;;5090705;28;20454;-71
2022/02/09 16:23:36;;;;;;;61.00;3.70;;;;;;;;;;5060430;28;20461;-70
2022/02/09 16:33:12;;;;;;;61.53;5.13;;;;;;;;;;5090654;28;20450;-69
2022/02/09 16:38:03;;;;;;;61.87;4.07;;;;;;;;;;5094194;28;20431;-71
2022/02/09 16:46:18;;;;;;;62.20;4.30;;;;;;;;;;5073224;28;20446;-69
2022/02/09 16:48:56;;;;;;;62.43;3.83;;;;;;;;;;5093300;28;20449;-71
2022/02/09 16:51:31;;;;;;;63.50;4.20;;;;;;;;;;5094087;28;20810;-72
2022/02/09 16:54:26;;;;;;;66.80;4.50;;;;;;;;;;5093530;28;20889;-69
2022/02/09 17:08:19;;;;;;;60.73;4.33;;;;;;;;;;5094028;28;20442;-69
2022/02/09 17:08:38;;;;;;;65.20;5.17;;;;;;;;;;5093850;28;20414;-69
2022/02/09 17:15:28;;;;;;;60.97;4.40;;;;;;;;;;5094002;28;20538;-69
2022/02/09 17:19:46;;;;;;;65.50;7.20;;;;;;;;;;5094201;28;20972;-69
2022/02/09 17:22:14;;;;;;;67.50;6.67;;;;;;;;;;5093787;28;20461;-68
2022/02/09 17:24:44;;;;;;;67.87;7.53;;;;;;;;;;5094106;28;20950;-68
2022/02/09 17:27:19;;;;;;;63.10;6.73;;;;;;;;;;5092875;28;20457;-68
2022/02/09 17:30:11;;;;;;;64.07;6.30;;;;;;;;;;5093510;28;20540;-69
2022/02/09 17:32:50;;;;;;;65.47;6.93;;;;;;;;;;5072645;28;20482;-68
2022/02/09 17:35:25;;;;;;;62.17;6.30;;;;;;;;;;5073118;28;20543;-68
2022/02/09 17:57:36;;;;;;;64.77;6.83;;;;;;;;;;5085468;28;20237;-67
2022/02/09 18:00:13;;;;;;;72.37;7.03;;;;;;;;;;5093118;28;20449;-68
2022/02/09 18:02:48;;;;;;;61.43;6.07;;;;;;;;;;5092993;28;20802;-69
2022/02/09 18:05:44;;;;;;;63.77;6.13;;;;;;;;;;5093031;28;20479;-68
2022/02/09 18:08:21;;;;;;;67.47;7.40;;;;;;;;;;5092592;28;20573;-69
2022/02/09 18:25:32;;;;;;;63.53;6.50;;;;;;;;;;5093053;28;20687;-69
2022/02/09 18:30:55;;;;;;;66.97;10.13;;;;;;;;;;5084744;28;20668;-66
2022/02/09 18:33:50;;;;;;;66.85;7.60;;;;;;;;;;5071465;28;20230;-68
2022/02/09 18:45:07;;;;;;;64.18;7.50;;;;;;;;;;5072378;28;20494;-70
2022/02/09 18:48:07;;;;;;;72.68;11.48;;;;;;;;;;5071713;28;20647;-69
2022/02/09 19:04:43;;;;;;;68.57;11.05;;;;;;;;;;5073670;28;20253;-67
2022/02/09 19:07:33;;;;;;;67.57;8.50;;;;;;;;;;5091086;28;20208;-69
2022/02/09 19:18:39;;;;;;;67.22;9.48;;;;;;;;;;5090687;28;20618;-69
2022/02/09 19:27:13;;;;;;;72.63;11.18;;;;;;;;;;5091754;28;20195;-67
2022/02/09 19:30:07;;;;;;;81.55;10.35;;;;;;;;;;5091394;28;20315;-69
2022/02/09 19:49:18;;;;;;;70.32;10.98;;;;;;;;;;5080768;28;20596;-68
2022/02/09 19:52:07;;;;;;;79.32;12.95;;;;;;;;;;5100988;28;20199;-67
2022/02/09 19:54:47;;;;;;;79.38;10.93;;;;;;;;;;5110879;28;20225;-68
2022/02/09 19:57:19;;;;;;;70.38;11.00;;;;;;;;;;5111025;28;20208;-67
2022/02/09 19:59:49;;;;;;;82.50;12.02;;;;;;;;;;5112256;28;20208;-67
2022/02/09 20:02:21;;;;;;;78.30;11.10;;;;;;;;;;5111924;28;20240;-68
2022/02/09 20:04:52;;;;;;;77.38;11.32;;;;;;;;;;5115161;28;20291;-68
2022/02/09 20:07:22;;;;;;;90.90;19.95;;;;;;;;;;5102165;28;20200;-68
2022/02/09 20:09:56;;;;;;;76.60;11.70;;;;;;;;;;5095016;28;20330;-68
2022/02/09 20:12:26;;;;;;;75.55;11.50;;;;;;;;;;5093191;28;20200;-68
2022/02/09 20:14:57;;;;;;;71.10;10.18;;;;;;;;;;5094474;28;20224;-68
2022/02/09 20:17:29;;;;;;;67.32;9.55;;;;;;;;;;5093560;28;20204;-69
2022/02/09 20:20:02;;;;;;;75.10;11.27;;;;;;;;;;5093809;28;20208;-68
2022/02/09 20:22:31;;;;;;;77.85;11.20;;;;;;;;;;5094746;28;20295;-68
2022/02/09 20:25:12;;;;;;;70.03;10.73;;;;;;;;;;5094311;28;20726;-70
2022/02/09 20:27:48;;;;;;;68.60;9.48;;;;;;;;;;5094249;28;20257;-69
2022/02/09 20:30:21;;;;;;;75.10;10.73;;;;;;;;;;5094872;28;20203;-68
2022/02/09 20:32:56;;;;;;;67.03;9.13;;;;;;;;;;5093951;28;20291;-68
2022/02/09 20:35:27;;;;;;;68.53;9.05;;;;;;;;;;5093754;28;20768;-67
2022/02/09 20:38:00;;;;;;;73.88;9.43;;;;;;;;;;5093316;28;20672;-67
2022/02/09 20:40:35;;;;;;;72.70;9.70;;;;;;;;;;5094096;28;20672;-67
2022/02/09 20:43:10;;;;;;;67.90;8.82;;;;;;;;;;5094504;28;20210;-68
2022/02/09 20:45:47;;;;;;;67.72;8.63;;;;;;;;;;5092325;28;20597;-68
2022/02/09 20:48:25;;;;;;;66.00;8.52;;;;;;;;;;5093805;28;20680;-68
2022/02/09 20:50:55;;;;;;;70.38;9.25;;;;;;;;;;5094135;28;20212;-69
2022/02/09 20:53:24;;;;;;;68.45;8.80;;;;;;;;;;5093310;28;20311;-68
2022/02/09 20:55:57;;;;;;;69.15;9.02;;;;;;;;;;5093561;28;20673;-69
2022/02/09 20:58:34;;;;;;;66.63;8.70;;;;;;;;;;5093157;28;20627;-68
2022/02/09 21:01:12;;;;;;;65.40;7.93;;;;;;;;;;5093884;28;20219;-68
2022/02/09 21:03:49;;;;;;;69.65;9.07;;;;;;;;;;5093994;28;20315;-68
2022/02/09 21:06:36;;;;;;;69.05;9.15;;;;;;;;;;5093533;28;20196;-68
2022/02/09 21:09:18;;;;;;;67.65;8.27;;;;;;;;;;5093062;28;20267;-68
2022/02/09 21:12:02;;;;;;;71.07;9.38;;;;;;;;;;5094132;28;20208;-69
2022/02/09 21:14:54;;;;;;;67.25;8.52;;;;;;;;;;5092936;28;20226;-68
2022/02/09 21:17:50;;;;;;;69.70;9.68;;;;;;;;;;5091131;28;20609;-68
2022/02/09 21:23:37;;;;;;;66.95;8.70;;;;;;;;;;5010853;28;20207;-68
2022/02/09 21:32:10;;;;;;;67.75;9.38;;;;;;;;;;5092952;28;20196;-68
2022/02/09 21:54:41;;;;;;;70.68;9.05;;;;;;;;;;4933207;29;20218;-68
2022/02/09 21:57:17;;;;;;;68.10;8.57;;;;;;;;;;4933201;29;20296;-68
2022/02/09 22:19:16;;;;;;;66.88;10.05;;;;;;;;;;4927530;28;20260;-69
2022/02/09 22:20:10;;;;;;;66.97;9.75;;;;;;;;;;5008087;28;20210;-68
2022/02/09 22:22:51;;;;;;;71.28;9.90;;;;;;;;;;5034975;28;20609;-68
2022/02/09 22:28:12;;;;;;;67.68;9.43;;;;;;;;;;5072227;28;20219;-69
2022/02/09 22:47:56;;;;;;;68.40;9.35;;;;;;;;;;5083290;28;20231;-68
2022/02/09 22:50:40;;;;;;;66.95;9.52;;;;;;;;;;5092243;28;20200;-68
2022/02/09 22:56:00;;;;;;;66.50;9.70;;;;;;;;;;5092365;28;20341;-68
2022/02/09 22:58:29;;;;;;;68.20;10.15;;;;;;;;;;5091653;28;20208;-69
2022/02/09 23:01:07;;;;;;;67.63;9.50;;;;;;;;;;5091656;28;20208;-69
2022/02/09 23:03:42;;;;;;;68.10;9.48;;;;;;;;;;5091662;28;20231;-68
2022/02/09 23:06:34;;;;;;;66.97;9.32;;;;;;;;;;5092152;28;20281;-69
2022/02/09 23:14:53;;;;;;;64.80;7.85;;;;;;;;;;5091542;28;20216;-68
2022/02/09 23:26:10;;;;;;;114.45;21.70;;;;;;;;;;5092151;28;20660;-69
2022/02/09 23:57:13;;;;;;;79.00;13.32;;;;;;;;;;5095513;28;20188;-68
